Time;durP1;ratioP1;P1;durP2;ratioP2;P2;SDS_P1;SDS_P2;PMS_P1;PMS_P2;Temp;Humidity;BMP_temperature;BMP_pressure;BME280_temperature;BME280_humidity;BME280_pressure;Samples;Min_cycle;Max_cycle;Signal;HPM_P1;HPM_P2
2022/02/03 00:01:11;;;;;;;0.40;0.40;;;6.50;99.90;;;;;;5033286;28;20177;-69
2022/02/03 00:03:50;;;;;;;0.30;0.30;;;6.50;99.90;;;;;;5033274;28;20753;-69
2022/02/03 00:06:24;;;;;;;0.30;0.30;;;6.60;99.90;;;;;;5032834;28;20155;-69
2022/02/03 00:16:14;;;;;;;0.35;0.35;;;6.60;99.90;;;;;;5033209;28;20277;-68
2022/02/03 00:25:15;;;;;;;0.30;0.30;;;6.70;99.90;;;;;;5036941;28;20217;-69
2022/02/03 00:36:40;;;;;;;0.40;0.40;;;6.70;99.90;;;;;;5036813;28;20198;-69
2022/02/03 00:49:50;;;;;;;0.30;0.30;;;6.90;99.90;;;;;;5036683;28;20539;-69
2022/02/03 00:52:17;;;;;;;0.30;0.30;;;6.90;99.90;;;;;;5036245;28;20175;-69
2022/02/03 00:54:42;;;;;;;0.30;0.30;;;6.90;99.90;;;;;;5036205;28;20281;-69
2022/02/03 00:57:10;;;;;;;0.30;0.30;;;6.90;99.90;;;;;;5036308;28;20230;-69
2022/02/03 01:00:04;;;;;;;0.30;0.30;;;6.90;99.90;;;;;;5036139;28;20171;-69
2022/02/03 01:02:32;;;;;;;0.30;0.30;;;7.00;99.90;;;;;;5036260;28;20648;-70
2022/02/03 01:05:03;;;;;;;0.30;0.30;;;7.00;99.90;;;;;;5035906;28;20197;-69
2022/02/03 01:07:37;;;;;;;0.35;0.35;;;7.10;99.90;;;;;;5036158;28;20232;-69
2022/02/03 01:10:13;;;;;;;0.30;0.30;;;7.10;99.90;;;;;;5035894;28;20641;-69
2022/02/03 01:13:05;;;;;;;0.30;0.30;;;7.10;99.90;;;;;;5036109;28;20212;-69
2022/02/03 01:37:12;;;;;;;0.30;0.30;;;6.80;99.90;;;;;;5035624;28;20262;-69
2022/02/03 01:45:20;;;;;;;0.40;0.40;;;6.90;99.90;;;;;;5035277;28;20731;-69
2022/02/03 01:53:20;;;;;;;0.40;0.40;;;6.80;99.50;;;;;;5035116;28;20246;-69
2022/02/03 01:55:47;;;;;;;0.30;0.30;;;6.80;99.60;;;;;;5035318;28;20191;-70
2022/02/03 01:58:21;;;;;;;0.30;0.30;;;6.70;99.60;;;;;;5034909;28;20198;-69
2022/02/03 02:00:59;;;;;;;0.35;0.35;;;6.70;99.60;;;;;;5035150;28;20262;-70
2022/02/03 02:03:45;;;;;;;0.30;0.30;;;6.40;99.90;;;;;;5035012;28;20202;-69
2022/02/03 02:06:27;;;;;;;0.40;0.40;;;6.50;99.90;;;;;;5034915;28;20151;-69
2022/02/03 02:09:24;;;;;;;0.30;0.30;;;6.60;99.90;;;;;;5034730;28;20203;-70
2022/02/03 02:12:21;;;;;;;0.40;0.40;;;6.60;99.90;;;;;;5035192;28;20543;-69
2022/02/03 02:43:06;;;;;;;0.30;0.30;;;6.60;99.90;;;;;;5034374;28;20177;-69
2022/02/03 02:45:56;;;;;;;0.30;0.30;;;6.60;99.90;;;;;;5033725;28;20194;-69
2022/02/03 02:48:27;;;;;;;0.30;0.30;;;6.60;99.90;;;;;;5034022;28;20175;-69
2022/02/03 02:51:05;;;;;;;0.40;0.40;;;6.70;99.90;;;;;;5034324;28;20254;-69
2022/02/03 02:56:29;;;;;;;0.30;0.30;;;6.60;99.90;;;;;;5034250;28;20707;-69
2022/02/03 03:30:00;;;;;;;0.40;0.40;;;6.50;99.60;;;;;;5033698;28;20698;-66
2022/02/03 03:32:44;;;;;;;0.40;0.40;;;6.50;99.80;;;;;;5033368;28;20171;-66
2022/02/03 03:35:31;;;;;;;0.30;0.30;;;6.40;99.90;;;;;;5033411;28;20289;-66
2022/02/03 03:37:59;;;;;;;0.30;0.30;;;6.50;99.90;;;;;;5033439;28;20563;-66
2022/02/03 03:40:25;;;;;;;0.40;0.40;;;6.50;99.70;;;;;;5033310;28;20171;-69
2022/02/03 03:43:07;;;;;;;0.35;0.35;;;6.40;99.70;;;;;;5033509;28;20166;-69
2022/02/03 03:45:35;;;;;;;0.30;0.30;;;6.40;99.90;;;;;;5033463;28;20727;-69
2022/02/03 03:48:05;;;;;;;0.40;0.40;;;6.40;99.90;;;;;;5033529;28;20202;-69
2022/02/03 03:50:35;;;;;;;0.40;0.40;;;6.40;99.80;;;;;;5033329;28;20182;-69
2022/02/03 03:53:10;;;;;;;0.32;0.32;;;6.40;99.70;;;;;;5033374;28;20221;-69
2022/02/03 04:33:19;;;;;;;0.30;0.30;;;6.20;99.80;;;;;;5036803;28;20174;-69
2022/02/03 04:41:25;;;;;;;0.40;0.40;;;6.30;99.90;;;;;;5036689;28;20175;-69
2022/02/03 05:00:28;;;;;;;0.40;0.40;;;6.40;99.50;;;;;;5036310;28;20217;-69
2022/02/03 05:03:20;;;;;;;0.30;0.30;;;6.40;99.50;;;;;;5027737;28;20175;-69
2022/02/03 05:06:31;;;;;;;0.30;0.30;;;6.40;99.50;;;;;;5036082;28;20612;-69
2022/02/03 06:05:09;;;;;;;0.30;0.30;;;6.00;99.90;;;;;;5034793;28;20202;-69
2022/02/03 06:15:32;;;;;;;0.40;0.40;;;6.20;99.90;;;;;;5034663;28;20669;-69
2022/02/03 06:29:19;;;;;;;0.40;0.40;;;6.10;99.80;;;;;;5034321;28;20197;-69
2022/02/03 06:31:47;;;;;;;0.40;0.40;;;6.10;99.80;;;;;;5034573;28;20177;-69
2022/02/03 06:34:13;;;;;;;0.30;0.30;;;6.20;99.90;;;;;;5034107;28;20714;-69
2022/02/03 06:36:40;;;;;;;0.30;0.30;;;6.20;99.80;;;;;;5034308;28;20253;-68
2022/02/03 06:39:24;;;;;;;0.40;0.40;;;6.20;99.80;;;;;;5034074;28;20445;-69
2022/02/03 06:41:57;;;;;;;0.30;0.30;;;6.20;99.90;;;;;;5034564;28;20167;-69
2022/02/03 06:44:29;;;;;;;0.30;0.30;;;6.30;99.70;;;;;;5033112;28;20190;-69
2022/02/03 06:46:58;;;;;;;0.30;0.30;;;6.30;99.70;;;;;;5034388;28;20163;-69
2022/02/03 06:49:40;;;;;;;0.35;0.35;;;6.30;99.70;;;;;;5033970;28;20169;-69
2022/02/03 06:52:15;;;;;;;0.40;0.40;;;6.30;99.70;;;;;;5034324;28;20183;-69
2022/02/03 06:54:56;;;;;;;0.30;0.30;;;6.30;99.90;;;;;;5034072;28;20190;-69
2022/02/03 06:57:32;;;;;;;0.40;0.40;;;6.30;99.40;;;;;;5033921;28;20704;-69
2022/02/03 07:00:05;;;;;;;0.40;0.40;;;6.30;99.50;;;;;;5033827;28;20167;-69
2022/02/03 07:02:36;;;;;;;0.30;0.30;;;6.30;99.40;;;;;;5034235;28;20171;-69
2022/02/03 07:05:01;;;;;;;0.63;0.63;;;6.30;99.40;;;;;;5033715;28;20680;-69
2022/02/03 07:07:27;;;;;;;0.30;0.30;;;6.40;99.50;;;;;;5033992;28;20179;-69
2022/02/03 07:09:53;;;;;;;0.40;0.40;;;6.40;99.40;;;;;;5033608;28;20686;-69
2022/02/03 07:12:20;;;;;;;0.40;0.40;;;6.40;99.50;;;;;;5033776;28;20297;-68
2022/02/03 07:14:46;;;;;;;0.40;0.40;;;6.40;99.40;;;;;;5033640;28;20210;-69
2022/02/03 07:17:12;;;;;;;0.40;0.40;;;6.50;99.50;;;;;;5033798;28;20166;-68
2022/02/03 07:19:49;;;;;;;0.40;0.40;;;6.50;99.30;;;;;;5033353;28;20175;-69
2022/02/03 07:22:16;;;;;;;0.40;0.40;;;6.40;99.20;;;;;;5033793;28;20539;-69
2022/02/03 07:24:41;;;;;;;0.30;0.30;;;6.40;99.30;;;;;;5033551;28;20245;-69
2022/02/03 07:27:07;;;;;;;0.40;0.40;;;6.50;99.50;;;;;;5033617;28;20175;-69
2022/02/03 07:29:33;;;;;;;0.37;0.37;;;6.60;99.40;;;;;;5033587;28;20171;-69
2022/02/03 07:31:58;;;;;;;0.30;0.30;;;6.60;99.20;;;;;;5032707;28;20451;-69
2022/02/03 07:34:24;;;;;;;0.30;0.30;;;6.60;99.00;;;;;;5033429;28;20637;-69
2022/02/03 07:36:50;;;;;;;0.30;0.30;;;6.60;99.20;;;;;;5033406;28;20525;-70
2022/02/03 07:39:15;;;;;;;0.40;0.40;;;6.60;99.20;;;;;;5033204;28;20204;-69
2022/02/03 07:41:42;;;;;;;0.30;0.30;;;6.60;99.20;;;;;;5033458;28;20171;-69
2022/02/03 07:44:10;;;;;;;0.30;0.30;;;6.70;99.40;;;;;;5033511;28;20206;-69
2022/02/03 07:46:36;;;;;;;0.40;0.40;;;6.80;99.40;;;;;;5033409;28;20605;-69
2022/02/03 07:49:02;;;;;;;0.30;0.30;;;7.00;99.20;;;;;;5033267;28;20202;-69
2022/02/03 07:51:28;;;;;;;0.30;0.30;;;7.10;98.90;;;;;;5033450;28;20175;-69
2022/02/03 07:53:53;;;;;;;0.30;0.30;;;7.30;98.70;;;;;;5033249;28;20194;-69
2022/02/03 07:56:19;;;;;;;0.30;0.30;;;7.40;98.40;;;;;;5033412;28;20170;-69
2022/02/03 07:58:45;;;;;;;0.30;0.30;;;7.40;98.30;;;;;;5033229;28;20206;-69
2022/02/03 08:01:11;;;;;;;0.30;0.30;;;7.50;98.10;;;;;;5033360;28;20179;-69
2022/02/03 08:03:41;;;;;;;0.30;0.30;;;7.40;97.90;;;;;;5033307;28;20257;-69
2022/02/03 08:06:10;;;;;;;0.30;0.30;;;7.50;98.00;;;;;;5033431;28;20153;-69
2022/02/03 08:11:03;;;;;;;0.40;0.40;;;7.60;97.70;;;;;;5033351;28;20225;-69
2022/02/03 08:13:36;;;;;;;0.40;0.40;;;7.50;97.70;;;;;;5033233;28;20636;-69
2022/02/03 08:16:13;;;;;;;0.30;0.30;;;7.50;98.00;;;;;;5033019;28;20170;-69
2022/02/03 08:18:41;;;;;;;0.40;0.40;;;7.50;97.90;;;;;;5032969;28;20194;-69
2022/02/03 08:21:11;;;;;;;0.30;0.30;;;7.60;97.80;;;;;;5033002;28;20229;-69
2022/02/03 08:31:10;;;;;;;0.40;0.40;;;8.00;97.50;;;;;;5033381;28;20233;-69
2022/02/03 08:33:35;;;;;;;0.40;0.40;;;8.20;97.30;;;;;;5032726;28;20207;-69
2022/02/03 08:36:05;;;;;;;0.30;0.30;;;8.40;97.30;;;;;;5032898;28;20641;-69
2022/02/03 08:38:45;;;;;;;0.30;0.30;;;8.60;96.80;;;;;;5032755;28;20202;-69
2022/02/03 08:41:12;;;;;;;0.30;0.30;;;8.90;96.60;;;;;;5033079;28;20197;-69
2022/02/03 08:43:39;;;;;;;0.30;0.30;;;9.20;96.20;;;;;;5035711;28;20239;-69
2022/02/03 08:46:12;;;;;;;0.30;0.30;;;9.30;95.60;;;;;;5036615;28;20170;-69
2022/02/03 08:48:39;;;;;;;0.40;0.40;;;9.30;95.40;;;;;;5036413;28;20285;-69
2022/02/03 08:51:06;;;;;;;0.30;0.30;;;9.40;95.10;;;;;;5036396;28;20181;-69
2022/02/03 08:53:43;;;;;;;0.65;0.65;;;9.30;94.90;;;;;;5036468;28;20167;-69
2022/02/03 09:55:04;;;;;;;0.30;0.30;;;14.00;80.00;;;;;;5034218;28;20430;-67
2022/02/03 10:00:39;;;;;;;0.30;0.30;;;13.90;81.60;;;;;;5035090;28;20903;-67
2022/02/03 10:03:17;;;;;;;0.30;0.30;;;14.30;79.90;;;;;;5035222;28;20397;-66
2022/02/03 10:06:17;;;;;;;0.40;0.40;;;14.20;79.50;;;;;;5035093;28;20375;-67
2022/02/03 10:08:49;;;;;;;0.30;0.30;;;14.10;79.90;;;;;;5034710;28;20405;-69
2022/02/03 10:11:19;;;;;;;0.30;0.30;;;13.90;80.10;;;;;;5034798;28;20463;-70
2022/02/03 10:13:53;;;;;;;0.57;0.57;;;13.70;80.80;;;;;;5033491;28;20449;-70
2022/02/03 10:16:24;;;;;;;0.30;0.30;;;13.30;81.80;;;;;;5033440;28;20609;-69
2022/02/03 10:19:03;;;;;;;0.30;0.30;;;12.90;82.40;;;;;;5034597;28;20195;-69
2022/02/03 10:21:29;;;;;;;0.30;0.30;;;12.70;83.90;;;;;;5033297;28;20645;-69
2022/02/03 10:24:03;;;;;;;0.30;0.30;;;12.70;84.80;;;;;;5034526;28;20191;-69
2022/02/03 10:26:43;;;;;;;0.30;0.30;;;12.60;84.80;;;;;;5034544;28;20163;-70
2022/02/03 10:29:20;;;;;;;0.30;0.30;;;12.60;84.90;;;;;;5034343;28;20174;-69
2022/02/03 10:31:47;;;;;;;0.30;0.30;;;12.50;85.40;;;;;;5034615;28;20261;-69
2022/02/03 10:34:19;;;;;;;0.30;0.30;;;12.40;85.20;;;;;;5034115;28;20206;-69
2022/02/03 10:50:24;;;;;;;0.30;0.30;;;12.40;85.70;;;;;;5034215;28;20174;-69
2022/02/03 11:06:26;;;;;;;0.38;0.38;;;11.30;89.20;;;;;;5033943;28;20158;-68
2022/02/03 11:09:02;;;;;;;0.30;0.30;;;11.10;90.10;;;;;;5033956;28;20217;-69
2022/02/03 11:11:41;;;;;;;0.30;0.30;;;10.90;90.10;;;;;;5033756;28;20162;-69
2022/02/03 11:14:08;;;;;;;0.30;0.30;;;10.80;90.50;;;;;;5033671;28;20241;-69
2022/02/03 11:16:40;;;;;;;0.30;0.30;;;10.80;91.10;;;;;;5033961;28;20174;-69
2022/02/03 11:19:10;;;;;;;0.35;0.35;;;11.00;91.20;;;;;;5033479;28;20227;-69
2022/02/03 11:21:36;;;;;;;0.30;0.30;;;11.10;90.90;;;;;;5033809;28;20564;-69
2022/02/03 11:24:11;;;;;;;0.30;0.30;;;11.30;90.20;;;;;;5033431;28;20190;-69
2022/02/03 12:18:29;;;;;;;0.30;0.30;;;12.10;88.80;;;;;;5035487;28;20205;-69
2022/02/03 12:21:09;;;;;;;0.30;0.30;;;12.00;89.30;;;;;;5037266;28;20216;-69
2022/02/03 12:26:27;;;;;;;0.30;0.30;;;12.30;89.50;;;;;;5036764;28;20519;-70
2022/02/03 12:28:53;;;;;;;0.30;0.30;;;12.40;88.90;;;;;;5036844;28;20240;-69
2022/02/03 12:39:13;;;;;;;0.30;0.30;;;12.20;89.30;;;;;;5036772;28;20237;-70
2022/02/03 12:41:50;;;;;;;0.40;0.40;;;12.10;88.90;;;;;;5036695;28;20520;-70
2022/02/03 12:44:22;;;;;;;0.30;0.30;;;12.00;89.50;;;;;;5036611;28;20186;-70
2022/02/03 12:46:48;;;;;;;0.40;0.40;;;12.00;89.80;;;;;;5036563;28;20155;-69
2022/02/03 12:49:13;;;;;;;0.30;0.30;;;12.00;89.90;;;;;;5036364;28;20190;-69
2022/02/03 12:51:39;;;;;;;0.40;0.40;;;12.00;89.80;;;;;;5036806;28;20542;-69
2022/02/03 12:54:12;;;;;;;0.30;0.30;;;12.00;90.10;;;;;;5036231;28;20191;-69
2022/02/03 12:56:39;;;;;;;0.30;0.30;;;12.10;90.00;;;;;;5036433;28;20155;-70
2022/02/03 12:59:08;;;;;;;0.60;0.60;;;12.10;89.50;;;;;;5036063;28;20613;-70
2022/02/03 13:01:38;;;;;;;0.55;0.50;;;12.00;90.00;;;;;;5036185;28;20163;-69
2022/02/03 13:04:10;;;;;;;0.30;0.30;;;11.90;90.10;;;;;;5036081;28;20189;-69
2022/02/03 13:06:41;;;;;;;0.30;0.30;;;11.50;90.70;;;;;;5036044;28;20171;-69
2022/02/03 13:09:08;;;;;;;0.30;0.30;;;11.50;91.30;;;;;;5036054;28;20171;-69
2022/02/03 13:16:53;;;;;;;0.30;0.30;;;11.30;91.10;;;;;;5036034;28;20179;-70
2022/02/03 13:19:30;;;;;;;0.30;0.30;;;11.10;91.60;;;;;;5035880;28;20660;-69
2022/02/03 13:24:47;;;;;;;0.30;0.30;;;11.00;92.10;;;;;;5035806;28;20312;-69
2022/02/03 13:27:19;;;;;;;0.30;0.30;;;11.20;92.00;;;;;;5035981;28;20179;-70
2022/02/03 13:32:34;;;;;;;0.30;0.30;;;11.30;92.10;;;;;;5035893;28;20193;-69
2022/02/03 13:35:16;;;;;;;0.30;0.30;;;11.30;92.20;;;;;;5035459;28;20213;-69
2022/02/03 13:37:54;;;;;;;0.30;0.30;;;11.10;91.50;;;;;;5035720;28;20562;-69
2022/02/03 13:40:20;;;;;;;0.40;0.40;;;10.90;91.60;;;;;;5035439;28;20163;-69
2022/02/03 13:42:52;;;;;;;0.30;0.30;;;10.90;93.00;;;;;;5035623;28;20224;-68
2022/02/03 13:45:21;;;;;;;0.30;0.30;;;11.00;92.80;;;;;;5035588;28;20217;-68
2022/02/03 13:47:48;;;;;;;0.30;0.30;;;11.10;92.40;;;;;;5035339;28;20199;-69
2022/02/03 13:50:24;;;;;;;0.30;0.30;;;11.30;92.10;;;;;;5035087;28;20195;-69
2022/02/03 14:22:07;;;;;;;0.30;0.30;;;10.30;92.60;;;;;;5034938;28;20229;-69
2022/02/03 14:29:48;;;;;;;0.40;0.40;;;9.90;94.20;;;;;;5034502;28;20167;-69
2022/02/03 14:32:17;;;;;;;0.40;0.40;;;9.90;94.10;;;;;;5034532;28;20413;-69
2022/02/03 14:34:43;;;;;;;0.30;0.30;;;9.90;94.20;;;;;;5034151;28;20245;-70
2022/02/03 14:42:42;;;;;;;0.30;0.30;;;9.70;94.40;;;;;;4973662;28;20203;-69
2022/02/03 14:45:11;;;;;;;0.30;0.30;;;9.70;94.40;;;;;;4973386;28;20200;-68
2022/02/03 14:47:39;;;;;;;0.30;0.30;;;9.70;94.00;;;;;;5004690;28;20190;-69
2022/02/03 14:50:05;;;;;;;0.30;0.30;;;9.70;93.90;;;;;;5033990;28;20250;-69
2022/02/03 14:52:54;;;;;;;0.30;0.30;;;9.60;94.10;;;;;;5034051;28;20174;-70
2022/02/03 14:58:14;;;;;;;0.30;0.30;;;9.20;94.40;;;;;;5034183;28;20698;-69
2022/02/03 15:00:40;;;;;;;0.35;0.35;;;9.20;94.90;;;;;;5034174;28;20175;-69
2022/02/03 15:03:06;;;;;;;0.30;0.30;;;9.20;95.00;;;;;;5033935;28;20220;-69
2022/02/03 15:05:35;;;;;;;0.40;0.40;;;9.20;95.10;;;;;;5033833;28;20186;-69
2022/02/03 15:08:10;;;;;;;0.40;0.40;;;9.10;94.70;;;;;;5033976;28;20170;-69
2022/02/03 15:11:03;;;;;;;0.40;0.40;;;9.00;94.70;;;;;;5033924;28;20184;-69
2022/02/03 15:13:41;;;;;;;0.30;0.30;;;9.00;95.30;;;;;;5033941;28;20538;-69
2022/02/03 15:16:09;;;;;;;0.30;0.30;;;9.00;95.50;;;;;;5033762;28;20182;-69
2022/02/03 15:18:36;;;;;;;0.30;0.30;;;8.90;95.30;;;;;;5033708;28;20284;-68
2022/02/03 15:21:01;;;;;;;0.30;0.30;;;8.90;95.30;;;;;;5033902;28;20182;-69
2022/02/03 15:23:28;;;;;;;0.30;0.30;;;8.80;95.40;;;;;;5033723;28;20170;-69
2022/02/03 15:25:53;;;;;;;0.40;0.40;;;8.70;95.20;;;;;;5033619;28;20662;-68
2022/02/03 15:28:20;;;;;;;0.40;0.40;;;8.70;95.60;;;;;;5033535;28;20189;-69
2022/02/03 15:30:46;;;;;;;0.40;0.40;;;8.60;95.60;;;;;;5033618;28;20932;-69
2022/02/03 15:33:13;;;;;;;0.40;0.40;;;8.50;95.60;;;;;;5033493;28;20386;-69
2022/02/03 15:35:44;;;;;;;0.40;0.40;;;8.50;95.50;;;;;;5033391;28;20300;-68
2022/02/03 15:38:14;;;;;;;0.30;0.30;;;8.40;95.60;;;;;;5033826;28;20210;-69
2022/02/03 15:40:41;;;;;;;0.30;0.30;;;8.30;96.00;;;;;;5033707;28;20630;-69
2022/02/03 15:43:25;;;;;;;0.30;0.30;;;8.10;95.90;;;;;;5033510;28;20501;-69
2022/02/03 15:45:55;;;;;;;0.40;0.40;;;8.10;96.30;;;;;;5033509;28;20148;-69
2022/02/03 15:51:04;;;;;;;0.30;0.30;;;8.10;96.30;;;;;;5033535;28;20192;-69
2022/02/03 16:17:42;;;;;;;0.30;0.30;;;7.30;97.10;;;;;;5036960;28;20577;-69
2022/02/03 16:20:20;;;;;;;0.30;0.30;;;7.20;97.30;;;;;;5036906;28;20635;-68
2022/02/03 16:22:53;;;;;;;0.40;0.40;;;7.10;97.30;;;;;;5037204;28;20202;-69
2022/02/03 16:54:52;;;;;;;0.40;0.40;;;6.20;99.30;;;;;;5036739;28;20733;-69
2022/02/03 16:57:23;;;;;;;0.40;0.40;;;6.10;99.30;;;;;;5036222;28;20178;-69
2022/02/03 16:59:52;;;;;;;0.30;0.30;;;6.10;99.50;;;;;;5036111;28;20204;-69
2022/02/03 17:02:17;;;;;;;0.57;0.57;;;6.10;99.60;;;;;;5035016;28;20706;-69
2022/02/03 17:04:44;;;;;;;0.40;0.40;;;6.10;99.60;;;;;;5035941;28;20183;-69
2022/02/03 17:07:09;;;;;;;0.40;0.40;;;6.10;99.60;;;;;;5036134;28;20224;-69
2022/02/03 17:09:38;;;;;;;0.40;0.40;;;6.00;99.70;;;;;;5035885;28;20183;-68
2022/02/03 17:12:05;;;;;;;0.40;0.40;;;6.00;99.90;;;;;;5036014;28;20759;-69
2022/02/03 17:14:31;;;;;;;0.40;0.40;;;6.00;99.80;;;;;;5036168;28;20187;-68
2022/02/03 17:16:58;;;;;;;0.40;0.40;;;5.90;99.90;;;;;;5036006;28;20544;-69
2022/02/03 17:19:24;;;;;;;0.30;0.30;;;6.00;99.90;;;;;;5035862;28;20657;-69
2022/02/03 17:21:50;;;;;;;0.40;0.40;;;5.90;99.90;;;;;;5036059;28;20245;-69
2022/02/03 17:24:15;;;;;;;0.30;0.30;;;5.90;99.90;;;;;;5035935;28;20433;-69
2022/02/03 17:26:58;;;;;;;1.73;1.63;;;5.90;99.90;;;;;;5035776;28;20250;-68
2022/02/03 17:32:08;;;;;;;0.40;0.40;;;5.80;99.90;;;;;;5035768;28;20301;-68
2022/02/03 18:10:00;;;;;;;0.40;0.40;;;5.60;99.90;;;;;;5034772;28;20188;-69
2022/02/03 20:06:26;;;;;;;0.98;0.98;;;4.90;99.90;;;;;;5033251;28;20262;-68
2022/02/03 20:09:08;;;;;;;0.40;0.40;;;4.90;99.90;;;;;;5033143;28;20192;-69
2022/02/03 20:11:36;;;;;;;0.35;0.35;;;4.80;99.90;;;;;;5033194;28;20175;-69
2022/02/03 20:14:08;;;;;;;0.35;0.35;;;4.80;99.90;;;;;;5031911;28;20262;-68
2022/02/03 20:16:34;;;;;;;0.40;0.40;;;4.70;99.90;;;;;;5033278;28;20613;-69
2022/02/03 20:18:59;;;;;;;0.40;0.40;;;4.70;99.90;;;;;;5033013;28;20209;-69
2022/02/03 20:21:29;;;;;;;0.40;0.40;;;4.70;99.90;;;;;;5033206;28;20208;-69
2022/02/03 20:23:55;;;;;;;0.30;0.30;;;4.60;99.90;;;;;;5033012;28;20191;-69
2022/02/03 20:26:21;;;;;;;0.30;0.30;;;4.60;99.90;;;;;;5032953;28;20167;-68
2022/02/03 20:28:47;;;;;;;0.40;0.40;;;4.60;99.90;;;;;;5032952;28;20182;-69
2022/02/03 20:31:12;;;;;;;0.40;0.40;;;4.60;99.90;;;;;;5033204;28;20171;-68
2022/02/03 20:33:38;;;;;;;0.40;0.40;;;4.60;99.90;;;;;;5032903;28;20425;-68
2022/02/03 20:36:07;;;;;;;0.40;0.40;;;4.50;99.90;;;;;;5032952;28;20535;-68
2022/02/03 20:38:33;;;;;;;0.90;0.90;;;4.50;99.90;;;;;;5034084;28;20230;-69
2022/02/03 20:40:58;;;;;;;0.37;0.37;;;4.50;99.90;;;;;;5036642;28;20210;-68
2022/02/03 20:43:24;;;;;;;0.33;0.33;;;4.50;99.90;;;;;;5036749;28;20171;-68
2022/02/03 20:45:50;;;;;;;0.40;0.40;;;4.40;99.90;;;;;;5036597;28;20170;-69
2022/02/03 20:48:16;;;;;;;0.40;0.40;;;4.50;99.90;;;;;;5035173;28;20258;-69
2022/02/03 20:50:45;;;;;;;0.30;0.30;;;4.40;99.90;;;;;;5035111;28;20178;-68
2022/02/03 20:53:12;;;;;;;0.30;0.30;;;4.50;99.90;;;;;;5036637;28;20543;-68
2022/02/03 20:55:37;;;;;;;0.30;0.30;;;4.50;99.90;;;;;;5036274;28;20205;-69
2022/02/03 20:58:03;;;;;;;0.30;0.30;;;4.60;99.90;;;;;;5036397;28;20637;-69
2022/02/03 21:00:46;;;;;;;0.30;0.30;;;4.50;99.90;;;;;;5036296;28;20170;-69
2022/02/03 21:05:55;;;;;;;0.30;0.30;;;4.60;99.90;;;;;;5036481;28;20246;-68
2022/02/03 21:08:29;;;;;;;0.30;0.30;;;4.60;99.90;;;;;;5036014;28;20195;-69
2022/02/03 21:10:55;;;;;;;0.30;0.30;;;4.70;99.90;;;;;;5036412;28;20601;-68
2022/02/03 21:13:20;;;;;;;0.40;0.40;;;4.60;99.90;;;;;;5036101;28;20198;-69
2022/02/03 21:15:46;;;;;;;0.30;0.30;;;4.60;99.90;;;;;;5034729;28;20171;-69
2022/02/03 21:18:14;;;;;;;0.40;0.40;;;4.50;99.90;;;;;;5035992;28;20195;-69
2022/02/03 21:20:41;;;;;;;0.30;0.30;;;4.50;99.90;;;;;;5035990;28;20246;-68
2022/02/03 21:23:09;;;;;;;0.32;0.32;;;4.50;99.90;;;;;;5035965;28;20175;-69
2022/02/03 21:25:39;;;;;;;0.40;0.40;;;4.50;99.90;;;;;;5035786;28;20183;-69
2022/02/03 21:28:13;;;;;;;0.85;0.82;;;4.60;99.90;;;;;;5036203;28;20563;-69
2022/02/03 21:30:40;;;;;;;0.38;0.38;;;4.40;99.90;;;;;;5036004;28;20174;-69
2022/02/03 21:33:10;;;;;;;0.30;0.30;;;4.40;99.90;;;;;;5035580;28;20247;-69
2022/02/03 21:35:36;;;;;;;0.32;0.32;;;4.40;99.90;;;;;;5035605;28;20276;-69
2022/02/03 21:38:03;;;;;;;0.40;0.40;;;4.30;99.90;;;;;;5035645;28;20245;-69
2022/02/03 21:40:29;;;;;;;0.35;0.35;;;4.30;99.90;;;;;;5035572;28;20402;-69
2022/02/03 21:42:55;;;;;;;0.30;0.30;;;4.30;99.90;;;;;;5035471;28;20174;-69
2022/02/03 21:45:22;;;;;;;0.30;0.30;;;4.30;99.90;;;;;;5035414;28;20813;-69
2022/02/03 21:47:49;;;;;;;0.32;0.32;;;4.30;99.90;;;;;;5035529;28;20465;-69
2022/02/03 21:50:16;;;;;;;0.30;0.30;;;4.20;99.90;;;;;;5034180;28;20585;-69
2022/02/03 21:52:51;;;;;;;0.35;0.35;;;4.20;99.90;;;;;;5035489;28;20159;-68
2022/02/03 21:55:17;;;;;;;0.50;0.50;;;4.10;99.90;;;;;;5035259;28;20614;-68
2022/02/03 21:57:46;;;;;;;0.40;0.40;;;4.10;99.90;;;;;;5035101;28;20163;-69
2022/02/03 22:00:15;;;;;;;0.30;0.30;;;4.10;99.90;;;;;;5035183;28;20167;-69
2022/02/03 22:02:41;;;;;;;0.40;0.40;;;4.10;99.90;;;;;;5035195;28;20178;-68
2022/02/03 22:05:11;;;;;;;0.30;0.30;;;4.20;99.90;;;;;;5035174;28;20202;-69
2022/02/03 22:07:40;;;;;;;0.40;0.40;;;4.00;99.90;;;;;;5034970;28;20170;-68
2022/02/03 22:10:06;;;;;;;0.95;0.95;;;4.00;99.90;;;;;;5034779;28;20171;-69
2022/02/03 22:12:32;;;;;;;0.40;0.40;;;3.90;99.90;;;;;;5035095;28;20206;-69
2022/02/03 22:14:58;;;;;;;0.30;0.30;;;3.90;99.90;;;;;;5034862;28;20249;-69
2022/02/03 22:17:23;;;;;;;0.30;0.30;;;3.90;99.90;;;;;;5034992;28;20167;-68
2022/02/03 22:19:52;;;;;;;0.30;0.30;;;3.90;99.90;;;;;;5034498;28;20198;-69
2022/02/03 22:27:28;;;;;;;0.37;0.37;;;3.80;99.90;;;;;;5034881;28;20174;-69
2022/02/03 22:45:54;;;;;;;0.30;0.30;;;4.10;99.90;;;;;;5034520;28;20622;-69
2022/02/03 22:50:49;;;;;;;0.35;0.35;;;4.30;99.90;;;;;;5034405;28;20232;-69
2022/02/03 22:53:14;;;;;;;0.30;0.30;;;4.40;99.90;;;;;;5034219;28;20183;-69
2022/02/03 22:55:40;;;;;;;0.30;0.30;;;4.50;99.90;;;;;;5034046;28;20571;-69
2022/02/03 23:01:01;;;;;;;0.32;0.32;;;4.60;99.90;;;;;;5033972;28;20216;-69
2022/02/03 23:03:31;;;;;;;0.40;0.40;;;4.70;99.90;;;;;;5034188;28;20166;-69
2022/02/03 23:05:58;;;;;;;0.30;0.30;;;4.80;99.90;;;;;;5033913;28;20220;-69
2022/02/03 23:13:58;;;;;;;0.30;0.30;;;4.90;99.90;;;;;;5033936;28;20190;-69
2022/02/03 23:19:16;;;;;;;0.38;0.38;;;4.80;99.90;;;;;;5033796;28;20209;-68
2022/02/03 23:21:54;;;;;;;0.30;0.30;;;4.90;99.90;;;;;;5033898;28;20167;-68
2022/02/03 23:24:20;;;;;;;0.30;0.30;;;4.90;99.90;;;;;;5033665;28;20237;-69
2022/02/03 23:26:54;;;;;;;1.40;1.30;;;5.00;99.90;;;;;;5034082;28;20662;-69
2022/02/03 23:29:21;;;;;;;0.35;0.35;;;5.20;99.90;;;;;;5033661;28;20170;-69
2022/02/03 23:32:03;;;;;;;0.30;0.30;;;5.30;99.90;;;;;;5033828;28;20182;-68
2022/02/03 23:34:29;;;;;;;0.30;0.30;;;5.20;99.90;;;;;;5033539;28;20202;-68
2022/02/03 23:36:54;;;;;;;0.40;0.40;;;5.20;99.90;;;;;;5033510;28;20249;-68
2022/02/03 23:39:29;;;;;;;0.50;0.50;;;5.30;99.90;;;;;;5033220;28;20616;-69
2022/02/03 23:44:54;;;;;;;0.40;0.40;;;5.40;99.90;;;;;;5033305;28;20611;-68
